createdAt,value
2023-01-23T00:01:29.103Z,103244.41
2023-01-23T00:03:57.445Z,103238.31
2023-01-23T00:06:26.346Z,103254.00
2023-01-23T00:08:56.220Z,103245.53
2023-01-23T00:11:26.530Z,103235.94
2023-01-23T00:13:54.274Z,103246.81
2023-01-23T00:16:23.644Z,103243.34
2023-01-23T00:18:52.298Z,103245.16
2023-01-23T00:21:22.425Z,103238.13
2023-01-23T00:23:52.537Z,103241.44
2023-01-23T00:26:25.838Z,103245.44
2023-01-23T00:28:54.363Z,103241.25
2023-01-23T00:31:24.746Z,103246.81
2023-01-23T00:33:55.779Z,103244.19
2023-01-23T00:36:24.234Z,103233.34
2023-01-23T00:38:51.952Z,103237.41
2023-01-23T00:41:20.958Z,103234.97
2023-01-23T00:43:50.319Z,103234.22
2023-01-23T00:46:17.966Z,103244.97
2023-01-23T00:48:45.680Z,103235.59
2023-01-23T00:51:13.715Z,103239.34
2023-01-23T00:53:41.425Z,103234.88
2023-01-23T00:56:09.391Z,103236.59
2023-01-23T00:58:39.534Z,103234.59
2023-01-23T01:01:07.298Z,103241.91
2023-01-23T01:03:35.605Z,103246.38
2023-01-23T01:06:03.838Z,103245.63
2023-01-23T01:08:31.656Z,103258.47
2023-01-23T01:10:59.351Z,103257.41
2023-01-23T01:13:27.776Z,103251.44
2023-01-23T01:15:56.933Z,103249.19
2023-01-23T01:18:25.091Z,103257.47
2023-01-23T01:20:52.772Z,103256.84
2023-01-23T01:23:21.071Z,103263.25
2023-01-23T01:25:48.840Z,103271.19
2023-01-23T01:28:16.653Z,103276.47
2023-01-23T01:30:44.346Z,103283.47
2023-01-23T01:33:13.445Z,103275.34
2023-01-23T01:35:42.243Z,103286.66
2023-01-23T01:38:10.083Z,103286.75
2023-01-23T01:40:38.858Z,103294.66
2023-01-23T01:43:08.505Z,103288.41
2023-01-23T01:46:09.218Z,103292.56
2023-01-23T01:48:43.718Z,103286.81
2023-01-23T01:51:17.936Z,103281.81
2023-01-23T01:53:50.084Z,103291.50
2023-01-23T01:56:19.634Z,103293.50
2023-01-23T01:58:50.283Z,103283.75
2023-01-23T02:01:18.809Z,103289.84
2023-01-23T02:03:49.351Z,103294.75
2023-01-23T02:06:17.104Z,103291.31
2023-01-23T02:08:52.349Z,103292.22
2023-01-23T02:11:20.040Z,103286.09
2023-01-23T02:13:47.707Z,103288.03
2023-01-23T02:16:19.294Z,103288.31
2023-01-23T02:18:51.218Z,103284.00
2023-01-23T02:21:25.146Z,103284.41
2023-01-23T02:24:04.300Z,103280.91
2023-01-23T02:26:36.799Z,103279.28
2023-01-23T02:29:05.404Z,103278.66
2023-01-23T02:31:33.245Z,103277.47
2023-01-23T02:34:01.437Z,103274.09
2023-01-23T02:36:30.990Z,103269.97
2023-01-23T02:39:04.905Z,103271.16
2023-01-23T02:41:37.647Z,103262.44
2023-01-23T02:44:10.273Z,103263.06
2023-01-23T02:46:37.965Z,103265.72
2023-01-23T02:49:05.754Z,103264.06
2023-01-23T02:51:33.486Z,103273.81
2023-01-23T02:54:01.620Z,103273.09
2023-01-23T02:56:29.376Z,103271.34
2023-01-23T02:59:16.059Z,103273.00
2023-01-23T03:01:43.831Z,103270.06
2023-01-23T03:04:11.621Z,103266.25
2023-01-23T03:06:39.375Z,103261.69
2023-01-23T03:09:10.312Z,103253.66
2023-01-23T03:11:39.813Z,103249.09
2023-01-23T03:14:10.734Z,103248.38
2023-01-23T03:16:39.082Z,103266.16
2023-01-23T03:19:09.305Z,103272.34
2023-01-23T03:21:40.265Z,103270.50
2023-01-23T03:24:09.165Z,103270.78
2023-01-23T03:26:39.467Z,103286.28
2023-01-23T03:29:26.308Z,103280.72
2023-01-23T03:31:54.017Z,103286.47
2023-01-23T03:34:25.422Z,103289.78
2023-01-23T03:36:53.128Z,103281.75
2023-01-23T03:39:38.327Z,103279.47
2023-01-23T03:42:06.021Z,103280.47
2023-01-23T03:44:35.178Z,103284.13
2023-01-23T03:47:03.223Z,103285.03
2023-01-23T03:49:31.169Z,103296.41
2023-01-23T03:51:58.912Z,103300.16
2023-01-23T03:54:26.771Z,103303.19
2023-01-23T03:56:55.409Z,103310.00
2023-01-23T03:59:23.127Z,103303.00
2023-01-23T04:01:52.225Z,103306.00
2023-01-23T04:04:19.933Z,103316.50
2023-01-23T04:06:47.689Z,103305.81
2023-01-23T04:09:15.375Z,103301.06
2023-01-23T04:11:43.029Z,103300.28
2023-01-23T04:14:10.698Z,103300.44
2023-01-23T04:16:38.347Z,103299.16
2023-01-23T04:19:07.408Z,103295.34
2023-01-23T04:21:35.044Z,103295.44
2023-01-23T04:24:02.748Z,103294.63
2023-01-23T04:26:30.481Z,103299.06
2023-01-23T04:28:58.139Z,103305.38
2023-01-23T04:31:25.904Z,103303.19
2023-01-23T04:33:53.602Z,103304.88
2023-01-23T04:36:22.778Z,103308.47
2023-01-23T04:38:50.419Z,103303.91
2023-01-23T04:41:21.354Z,103299.25
2023-01-23T04:43:49.047Z,103309.91
2023-01-23T04:46:16.936Z,103302.91
2023-01-23T04:48:44.746Z,103311.03
2023-01-23T04:51:12.910Z,103315.19
2023-01-23T04:53:41.903Z,103306.28
2023-01-23T04:56:09.601Z,103310.63
2023-01-23T04:58:37.269Z,103311.56
2023-01-23T05:01:06.690Z,103303.53
2023-01-23T05:03:35.039Z,103312.38
2023-01-23T05:06:02.982Z,103311.38
2023-01-23T05:08:30.676Z,103318.38
2023-01-23T05:10:59.703Z,103319.41
2023-01-23T05:13:27.426Z,103318.88
2023-01-23T05:15:55.075Z,103316.84
2023-01-23T05:18:22.799Z,103309.72
2023-01-23T05:20:50.450Z,103316.53
2023-01-23T05:23:18.297Z,103319.41
2023-01-23T05:25:46.557Z,103318.66
2023-01-23T05:28:15.732Z,103322.84
2023-01-23T05:30:43.573Z,103327.41
2023-01-23T05:33:11.361Z,103327.59
2023-01-23T05:35:40.200Z,103318.31
2023-01-23T05:38:07.867Z,103326.03
2023-01-23T05:40:35.508Z,103326.88
2023-01-23T05:43:03.127Z,103322.59
2023-01-23T05:45:32.160Z,103326.88
2023-01-23T05:47:59.795Z,103327.16
2023-01-23T05:50:27.534Z,103327.16
2023-01-23T05:52:55.168Z,103322.78
2023-01-23T05:55:22.967Z,103329.00
2023-01-23T05:57:50.669Z,103329.91
2023-01-23T06:00:19.789Z,103340.28
2023-01-23T06:02:49.078Z,103340.19
2023-01-23T06:05:16.822Z,103342.13
2023-01-23T06:07:44.510Z,103343.75
2023-01-23T06:10:12.299Z,103343.19
2023-01-23T06:12:39.955Z,103344.63
2023-01-23T06:15:08.371Z,103354.75
2023-01-23T06:17:36.223Z,103359.59
2023-01-23T06:20:06.274Z,103358.78
2023-01-23T06:22:33.972Z,103359.41
2023-01-23T06:25:01.625Z,103355.22
2023-01-23T06:27:29.295Z,103362.34
2023-01-23T06:29:56.948Z,103354.50
2023-01-23T06:32:24.768Z,103357.22
2023-01-23T06:34:52.415Z,103358.63
2023-01-23T06:37:21.470Z,103374.84
2023-01-23T06:39:49.157Z,103366.91
2023-01-23T06:42:16.898Z,103372.91
2023-01-23T06:44:44.905Z,103374.66
2023-01-23T06:47:12.535Z,103366.19
2023-01-23T06:49:40.299Z,103374.31
2023-01-23T06:52:07.933Z,103371.56
2023-01-23T06:54:37.095Z,103380.84
2023-01-23T06:57:04.852Z,103389.72
2023-01-23T06:59:33.238Z,103388.06
2023-01-23T07:02:01.095Z,103402.00
2023-01-23T07:04:28.868Z,103398.38
2023-01-23T07:06:56.615Z,103396.44
2023-01-23T07:09:24.315Z,103395.72
2023-01-23T07:11:53.459Z,103396.91
2023-01-23T07:14:21.169Z,103400.75
2023-01-23T07:16:49.011Z,103405.31
2023-01-23T07:19:16.684Z,103415.47
2023-01-23T07:21:44.430Z,103417.38
2023-01-23T07:24:12.173Z,103417.38
2023-01-23T07:26:39.879Z,103424.47
2023-01-23T07:29:09.855Z,103425.19
2023-01-23T07:31:37.852Z,103416.63
2023-01-23T07:34:05.656Z,103418.38
2023-01-23T07:36:33.363Z,103425.28
2023-01-23T07:39:01.020Z,103433.41
2023-01-23T07:41:28.682Z,103433.56
2023-01-23T07:43:56.441Z,103439.19
2023-01-23T07:46:26.806Z,103436.53
2023-01-23T07:48:56.180Z,103444.56
2023-01-23T07:51:23.915Z,103440.88
2023-01-23T07:53:51.677Z,103435.91
2023-01-23T07:56:19.792Z,103436.81
2023-01-23T07:58:51.623Z,103436.53
2023-01-23T08:01:20.278Z,103436.81
2023-01-23T08:03:49.482Z,103439.63
2023-01-23T08:06:17.461Z,103442.47
2023-01-23T08:08:45.253Z,103433.53
2023-01-23T08:11:13.763Z,103440.75
2023-01-23T08:13:41.621Z,103441.13
2023-01-23T08:16:12.035Z,103444.03
2023-01-23T08:18:41.195Z,103441.38
2023-01-23T08:21:11.269Z,103444.47
2023-01-23T08:23:40.746Z,103459.38
2023-01-23T08:26:09.732Z,103454.78
2023-01-23T08:28:37.430Z,103458.88
2023-01-23T08:31:07.217Z,103459.91
2023-01-23T08:33:35.834Z,103464.66
2023-01-23T08:36:04.752Z,103461.38
2023-01-23T08:38:33.912Z,103463.28
2023-01-23T08:41:03.609Z,103456.28
2023-01-23T08:43:31.931Z,103453.91
2023-01-23T08:46:00.410Z,103454.00
2023-01-23T08:48:29.060Z,103457.84
2023-01-23T08:51:01.877Z,103463.41
2023-01-23T08:53:30.056Z,103458.03
2023-01-23T08:56:02.015Z,103451.34
2023-01-23T08:58:29.741Z,103465.47
2023-01-23T09:00:57.810Z,103461.13
2023-01-23T09:03:26.370Z,103465.38
2023-01-23T09:05:54.371Z,103463.59
2023-01-23T09:08:22.172Z,103465.66
2023-01-23T09:10:49.876Z,103459.81
2023-01-23T09:13:19.663Z,103466.59
2023-01-23T09:15:47.878Z,103470.53
2023-01-23T09:18:15.608Z,103468.16
2023-01-23T09:20:43.371Z,103474.19
2023-01-23T09:23:11.086Z,103471.53
2023-01-23T09:25:39.021Z,103479.56
2023-01-23T09:28:06.779Z,103490.34
2023-01-23T09:30:35.834Z,103477.09
2023-01-23T09:33:03.594Z,103486.06
2023-01-23T09:35:32.248Z,103490.59
2023-01-23T09:38:04.641Z,103482.47
2023-01-23T09:40:35.789Z,103486.59
2023-01-23T09:43:13.824Z,103488.94
2023-01-23T09:45:48.188Z,103496.06
2023-01-23T09:48:22.331Z,103497.09
2023-01-23T09:50:57.443Z,103496.75
2023-01-23T09:53:31.180Z,103500.38
2023-01-23T09:56:04.002Z,103488.72
2023-01-23T09:58:38.275Z,103505.75
2023-01-23T10:01:12.396Z,103505.75
2023-01-23T10:03:48.160Z,103502.13
2023-01-23T10:06:23.420Z,103488.44
2023-01-23T10:09:05.270Z,103485.06
2023-01-23T10:11:42.770Z,103478.47
2023-01-23T10:14:28.052Z,103481.50
2023-01-23T10:17:07.053Z,103481.06
2023-01-23T10:19:46.973Z,103484.41
2023-01-23T10:22:29.441Z,103487.13
2023-01-23T10:24:59.310Z,103483.13
2023-01-23T10:27:34.718Z,103489.69
2023-01-23T10:30:05.137Z,103480.19
2023-01-23T10:32:52.384Z,103481.63
2023-01-23T10:35:23.474Z,103474.56
2023-01-23T10:37:57.673Z,103470.03
2023-01-23T10:40:39.892Z,103472.94
2023-01-23T10:43:13.501Z,103474.94
2023-01-23T10:45:42.081Z,103467.56
2023-01-23T10:48:42.478Z,103465.25
2023-01-23T10:51:31.225Z,103474.66
2023-01-23T10:54:31.352Z,103475.53
2023-01-23T10:57:02.351Z,103476.19
2023-01-23T10:59:34.040Z,103473.44
2023-01-23T11:02:18.193Z,103472.81
2023-01-23T11:04:49.485Z,103476.66
2023-01-23T11:07:18.633Z,103470.53
2023-01-23T11:09:48.797Z,103462.19
2023-01-23T11:12:19.528Z,103472.94
2023-01-23T11:14:47.280Z,103465.25
2023-01-23T11:17:18.666Z,103465.88
2023-01-23T11:19:49.873Z,103466.47
2023-01-23T11:22:33.841Z,103468.28
2023-01-23T11:25:24.423Z,103468.47
2023-01-23T11:27:58.765Z,103471.44
2023-01-23T11:30:35.199Z,103468.22
2023-01-23T11:33:12.691Z,103473.28
2023-01-23T11:35:52.006Z,103467.56
2023-01-23T11:38:30.727Z,103470.22
2023-01-23T11:40:58.987Z,103479.47
2023-01-23T11:43:26.731Z,103477.91
2023-01-23T11:46:19.721Z,103475.59
2023-01-23T11:49:01.183Z,103480.41
2023-01-23T11:51:37.504Z,103475.44
2023-01-23T11:54:21.608Z,103476.50
2023-01-23T11:57:03.445Z,103484.44
2023-01-23T12:00:06.763Z,103490.72
2023-01-23T12:02:56.056Z,103478.41
2023-01-23T12:05:49.675Z,103484.13
2023-01-23T12:08:32.501Z,103480.16
2023-01-23T12:11:12.994Z,103479.69
2023-01-23T12:13:57.447Z,103485.16
2023-01-23T12:16:34.538Z,103481.69
2023-01-23T12:19:15.869Z,103479.03
2023-01-23T12:21:48.984Z,103480.75
2023-01-23T12:24:33.054Z,103476.25
2023-01-23T12:27:08.183Z,103479.69
2023-01-23T12:30:00.001Z,103479.09
2023-01-23T12:32:44.791Z,103471.81
2023-01-23T12:35:30.864Z,103470.88
2023-01-23T12:38:14.199Z,103471.81
2023-01-23T12:40:46.785Z,103473.34
2023-01-23T12:43:19.703Z,103470.06
2023-01-23T12:45:52.002Z,103458.72
2023-01-23T12:48:28.507Z,103459.94
2023-01-23T12:51:02.052Z,103458.19
2023-01-23T12:53:36.013Z,103463.25
2023-01-23T12:56:08.836Z,103471.44
2023-01-23T12:58:41.583Z,103465.41
2023-01-23T13:01:24.581Z,103473.53
2023-01-23T13:04:10.386Z,103467.50
2023-01-23T13:06:58.911Z,103466.53
2023-01-23T13:09:36.606Z,103468.78
2023-01-23T13:12:21.530Z,103462.56
2023-01-23T13:15:12.719Z,103463.31
2023-01-23T13:17:46.105Z,103459.25
2023-01-23T13:20:44.363Z,103464.06
2023-01-23T13:23:33.644Z,103456.78
2023-01-23T13:26:28.915Z,103465.13
2023-01-23T13:29:02.119Z,103461.00
2023-01-23T13:31:42.497Z,103459.44
2023-01-23T13:34:39.183Z,103463.00
2023-01-23T13:37:47.451Z,103461.88
2023-01-23T13:40:19.245Z,103459.44
2023-01-23T13:42:46.957Z,103469.47
2023-01-23T13:45:50.604Z,103448.59
2023-01-23T14:24:22.843Z,103494.72
2023-01-23T14:26:52.634Z,103495.28
2023-01-23T14:29:27.107Z,103496.63
2023-01-23T14:31:55.990Z,103498.44
2023-01-23T14:34:25.282Z,103492.16
2023-01-23T14:36:56.701Z,103493.91
2023-01-23T14:39:29.309Z,103490.31
2023-01-23T14:42:02.354Z,103487.59
2023-01-23T14:44:35.806Z,103479.81
2023-01-23T14:47:05.339Z,103480.81
2023-01-23T14:49:37.481Z,103479.81
2023-01-23T14:52:07.387Z,103488.59
2023-01-23T14:54:37.903Z,103489.25
2023-01-23T14:57:10.232Z,103488.06
2023-01-23T14:59:40.021Z,103487.34
2023-01-23T15:02:27.003Z,103497.94
2023-01-23T15:05:18.192Z,103500.66
2023-01-23T15:07:47.681Z,103503.50
2023-01-23T15:10:20.463Z,103498.28
2023-01-23T15:12:51.159Z,103502.25
2023-01-23T15:15:21.171Z,103501.50
2023-01-23T15:17:49.412Z,103503.47
2023-01-23T15:20:32.073Z,103501.78
2023-01-23T15:23:14.266Z,103499.22
2023-01-23T15:25:43.341Z,103486.91
2023-01-23T15:28:39.725Z,103498.34
2023-01-23T15:31:22.099Z,103501.22
2023-01-23T15:33:49.844Z,103493.63
2023-01-23T15:36:26.434Z,103494.63
2023-01-23T15:38:54.645Z,103487.66
2023-01-23T15:41:40.706Z,103484.03
2023-01-23T15:44:14.686Z,103482.19
2023-01-23T15:46:42.563Z,103479.38
2023-01-23T15:49:23.588Z,103482.69
2023-01-23T15:51:52.944Z,103475.63
2023-01-23T15:54:27.665Z,103467.66
2023-01-23T15:57:07.129Z,103467.66
2023-01-23T15:59:36.546Z,103462.50
2023-01-23T16:02:04.605Z,103461.94
2023-01-23T16:04:32.443Z,103462.69
2023-01-23T16:07:04.204Z,103466.28
2023-01-23T16:09:35.879Z,103459.94
2023-01-23T16:12:05.638Z,103460.97
2023-01-23T16:14:33.435Z,103464.44
2023-01-23T16:17:15.290Z,103461.78
2023-01-23T16:19:44.359Z,103458.97
2023-01-23T16:22:15.468Z,103465.97
2023-01-23T16:24:43.834Z,103465.00
2023-01-23T16:27:18.923Z,103462.59
2023-01-23T16:29:49.373Z,103462.75
2023-01-23T16:32:17.539Z,103464.69
2023-01-23T16:34:45.569Z,103464.84
2023-01-23T16:37:16.431Z,103472.97
2023-01-23T16:39:45.981Z,103471.25
2023-01-23T16:42:22.580Z,103468.53
2023-01-23T16:44:50.940Z,103468.34
2023-01-23T16:47:18.879Z,103471.91
2023-01-23T16:49:52.538Z,103473.09
2023-01-23T16:52:23.333Z,103475.16
2023-01-23T16:54:53.613Z,103477.47
2023-01-23T16:57:23.304Z,103478.47
2023-01-23T16:59:51.584Z,103480.84
2023-01-23T17:02:22.849Z,103476.38
2023-01-23T17:04:50.918Z,103479.59
2023-01-23T17:07:20.411Z,103484.81
2023-01-23T17:09:49.230Z,103473.28
2023-01-23T17:12:19.324Z,103473.38
2023-01-23T17:14:49.598Z,103477.28
2023-01-23T17:17:23.452Z,103476.59
2023-01-23T17:19:51.215Z,103480.63
2023-01-23T17:22:24.004Z,103481.38
2023-01-23T17:24:51.808Z,103490.13
2023-01-23T17:27:19.606Z,103486.13
2023-01-23T17:29:49.160Z,103486.41
2023-01-23T17:32:25.935Z,103484.84
2023-01-23T17:34:53.654Z,103483.00
2023-01-23T17:37:24.104Z,103481.75
2023-01-23T17:39:51.911Z,103486.59
2023-01-23T17:42:19.603Z,103483.03
2023-01-23T17:44:48.773Z,103491.97
2023-01-23T17:47:17.332Z,103488.16
2023-01-23T17:49:47.962Z,103483.31
2023-01-23T17:52:15.691Z,103487.91
2023-01-23T17:54:43.395Z,103476.53
2023-01-23T17:57:11.385Z,103475.91
2023-01-23T17:59:39.075Z,103478.72
2023-01-23T18:02:24.520Z,103485.03
2023-01-23T18:05:00.732Z,103485.13
2023-01-23T18:07:28.525Z,103485.22
2023-01-23T18:09:56.276Z,103484.22
2023-01-23T18:12:31.681Z,103480.72
2023-01-23T18:15:11.434Z,103485.47
2023-01-23T18:17:54.262Z,103488.97
2023-01-23T18:20:25.310Z,103493.81
2023-01-23T18:22:53.322Z,103492.09
2023-01-23T18:25:24.045Z,103510.06
2023-01-23T18:27:55.069Z,103517.94
2023-01-23T18:30:44.272Z,103523.97
2023-01-23T18:33:33.810Z,103524.78
2023-01-23T18:36:18.259Z,103531.72
2023-01-23T18:39:11.037Z,103523.88
2023-01-23T18:41:43.578Z,103537.38
2023-01-23T18:44:17.092Z,103535.94
2023-01-23T18:46:45.217Z,103529.81
2023-01-23T18:49:27.686Z,103524.91
2023-01-23T18:52:05.626Z,103524.91
2023-01-23T18:54:42.011Z,103520.78
2023-01-23T18:57:23.405Z,103518.47
2023-01-23T19:00:02.166Z,103535.38
2023-01-23T19:02:36.582Z,103529.16
2023-01-23T19:05:23.203Z,103533.84
2023-01-23T19:07:51.483Z,103535.50
2023-01-23T19:10:21.366Z,103537.38
2023-01-23T19:13:01.155Z,103537.47
2023-01-23T19:15:34.683Z,103531.44
2023-01-23T19:18:13.340Z,103534.09
2023-01-23T19:20:48.228Z,103530.47
2023-01-23T19:23:28.751Z,103526.31
2023-01-23T19:25:56.925Z,103530.16
2023-01-23T19:28:25.253Z,103530.16
2023-01-23T19:30:53.829Z,103529.91
2023-01-23T19:33:22.523Z,103539.47
2023-01-23T19:35:54.852Z,103540.97
2023-01-23T19:38:23.532Z,103540.97
2023-01-23T19:40:51.479Z,103536.66
2023-01-23T19:43:19.575Z,103538.84
2023-01-23T19:45:47.688Z,103549.25
2023-01-23T19:48:15.581Z,103546.44
2023-01-23T19:50:44.035Z,103546.25
2023-01-23T19:53:14.809Z,103546.25
2023-01-23T19:55:42.626Z,103548.28
2023-01-23T19:58:10.491Z,103546.78
2023-01-23T20:00:38.303Z,103551.28
2023-01-23T20:03:06.194Z,103550.47
2023-01-23T20:05:34.073Z,103554.75
2023-01-23T20:08:02.062Z,103550.38
2023-01-23T20:10:31.205Z,103554.75
2023-01-23T20:12:59.006Z,103556.41
2023-01-23T20:15:27.612Z,103558.31
2023-01-23T20:17:55.644Z,103566.06
2023-01-23T20:20:24.081Z,103563.97
2023-01-23T20:22:51.995Z,103562.06
2023-01-23T20:25:20.039Z,103568.25
2023-01-23T20:27:49.564Z,103568.25
2023-01-23T20:30:19.909Z,103566.59
2023-01-23T20:32:47.881Z,103570.00
2023-01-23T20:35:15.710Z,103576.94
2023-01-23T20:37:43.365Z,103575.09
2023-01-23T20:40:12.394Z,103570.75
2023-01-23T20:42:40.867Z,103575.84
2023-01-23T20:45:10.957Z,103565.09
2023-01-23T20:47:38.744Z,103564.31
2023-01-23T20:50:07.180Z,103567.47
2023-01-23T20:52:52.571Z,103560.41
2023-01-23T20:55:20.858Z,103554.22
2023-01-23T20:58:06.053Z,103561.03
2023-01-23T21:00:35.145Z,103558.56
2023-01-23T21:03:02.986Z,103553.19
2023-01-23T21:05:30.753Z,103546.53
2023-01-23T21:07:58.515Z,103554.56
2023-01-23T21:10:27.991Z,103550.00
2023-01-23T21:12:55.816Z,103551.25
2023-01-23T21:15:23.926Z,103557.75
2023-01-23T21:17:53.191Z,103550.06
2023-01-23T21:20:21.062Z,103551.19
2023-01-23T21:22:55.919Z,103558.19
2023-01-23T21:25:25.483Z,103555.38
2023-01-23T21:27:53.199Z,103561.53
2023-01-23T21:30:21.238Z,103558.03
2023-01-23T21:32:50.384Z,103550.00
2023-01-23T21:35:19.902Z,103547.44
2023-01-23T21:38:00.214Z,103544.78
2023-01-23T21:40:27.976Z,103549.63
2023-01-23T21:42:55.724Z,103543.69
2023-01-23T21:45:23.502Z,103546.16
2023-01-23T21:47:51.218Z,103551.47
2023-01-23T21:50:24.378Z,103548.63
2023-01-23T21:52:52.175Z,103551.47
2023-01-23T21:55:20.239Z,103544.06
2023-01-23T21:57:48.180Z,103549.34
2023-01-23T22:00:33.820Z,103555.56
2023-01-23T22:03:01.681Z,103556.41
2023-01-23T22:05:30.791Z,103554.56
2023-01-23T22:07:58.484Z,103555.84
2023-01-23T22:10:26.268Z,103551.56
2023-01-23T22:12:53.953Z,103547.25
2023-01-23T22:15:21.815Z,103551.56
2023-01-23T22:17:49.628Z,103550.06
2023-01-23T22:20:18.249Z,103555.38
2023-01-23T22:22:47.278Z,103556.84
2023-01-23T22:25:14.942Z,103554.38
2023-01-23T22:27:42.624Z,103555.47
2023-01-23T22:30:11.345Z,103553.75
2023-01-23T22:32:39.055Z,103552.72
2023-01-23T22:35:09.275Z,103561.69
2023-01-23T22:37:38.120Z,103562.44
2023-01-23T22:40:08.997Z,103557.94
2023-01-23T22:42:37.057Z,103557.84
2023-01-23T22:45:05.328Z,103563.22
2023-01-23T22:47:33.029Z,103560.94
2023-01-23T22:50:00.659Z,103556.28
2023-01-23T22:52:28.357Z,103562.31
2023-01-23T22:54:56.026Z,103551.94
2023-01-23T22:57:25.105Z,103560.88
2023-01-23T22:59:52.766Z,103556.47
2023-01-23T23:02:20.423Z,103559.19
2023-01-23T23:04:49.896Z,103556.47
2023-01-23T23:07:17.763Z,103557.31
2023-01-23T23:09:46.074Z,103554.75
2023-01-23T23:12:14.352Z,103546.53
2023-01-23T23:14:43.440Z,103547.53
2023-01-23T23:17:11.163Z,103549.47
2023-01-23T23:19:38.876Z,103554.03
2023-01-23T23:22:07.105Z,103552.38
2023-01-23T23:24:34.815Z,103552.75
2023-01-23T23:27:02.520Z,103563.88
2023-01-23T23:29:30.332Z,103562.88
2023-01-23T23:31:59.510Z,103564.84
2023-01-23T23:34:27.235Z,103569.44
2023-01-23T23:36:54.937Z,103566.88
2023-01-23T23:39:22.601Z,103562.47
2023-01-23T23:41:50.291Z,103561.69
2023-01-23T23:44:17.948Z,103569.53
2023-01-23T23:46:45.671Z,103568.91
2023-01-23T23:49:18.105Z,103570.69
2023-01-23T23:51:45.771Z,103555.56
2023-01-23T23:54:13.437Z,103550.06
2023-01-23T23:56:41.079Z,103557.91
2023-01-23T23:59:08.812Z,103559.13
